Time;durP1;ratioP1;P1;durP2;ratioP2;P2;SDS_P1;SDS_P2;PMS_P1;PMS_P2;Temp;Humidity;BMP_temperature;BMP_pressure;BME280_temperature;BME280_humidity;BME280_pressure;Samples;Min_cycle;Max_cycle;Signal;HPM_P1;HPM_P2
2023/08/03 00:00:49;;;;;;;8.85;5.85;;;;;;;29.32;57.90;98297.88;5033993;28;20184;-86
2023/08/03 00:03:15;;;;;;;8.32;5.88;;;;;;;29.28;58.09;98294.75;5032625;28;20194;-86
2023/08/03 00:05:40;;;;;;;8.90;6.07;;;;;;;29.31;57.82;98294.31;5033500;28;20229;-86
2023/08/03 00:08:05;;;;;;;9.10;5.97;;;;;;;29.31;58.11;98301.59;5033475;28;20672;-86
2023/08/03 00:10:32;;;;;;;9.05;6.18;;;;;;;29.31;58.03;98297.03;5016834;28;20182;-86
2023/08/03 00:12:58;;;;;;;9.13;5.72;;;;;;;29.30;57.87;98292.66;5016070;28;20186;-86
2023/08/03 00:15:23;;;;;;;9.30;6.05;;;;;;;29.31;58.07;98290.78;5033463;28;20166;-85
2023/08/03 00:17:48;;;;;;;8.55;6.07;;;;;;;29.32;57.35;98289.75;5033987;28;20261;-86
2023/08/03 00:20:15;;;;;;;9.98;6.22;;;;;;;29.26;57.97;98286.06;5033593;28;20277;-85
2023/08/03 00:22:45;;;;;;;8.38;6.45;;;;;;;29.18;58.41;98289.84;5033588;28;20313;-85
2023/08/03 00:25:11;;;;;;;9.30;6.25;;;;;;;29.14;58.23;98288.59;5033602;28;20189;-85
2023/08/03 00:27:36;;;;;;;9.00;6.30;;;;;;;29.10;58.41;98290.09;5033331;28;20615;-85
2023/08/03 00:30:02;;;;;;;8.60;6.38;;;;;;;29.06;58.55;98291.56;5033298;28;20550;-85
2023/08/03 00:32:27;;;;;;;9.65;6.90;;;;;;;29.04;58.89;98290.13;5033528;28;20624;-86
2023/08/03 00:34:54;;;;;;;8.68;5.72;;;;;;;29.04;58.79;98285.56;5032759;28;20175;-85
2023/08/03 00:37:19;;;;;;;8.18;6.28;;;;;;;29.05;58.58;98289.09;5032038;28;20182;-86
2023/08/03 00:39:44;;;;;;;11.27;5.95;;;;;;;29.01;58.77;98294.09;5033446;28;20185;-86
2023/08/03 00:42:10;;;;;;;8.65;6.05;;;;;;;28.99;58.50;98298.06;5033080;28;20269;-85
2023/08/03 00:44:37;;;;;;;10.02;6.75;;;;;;;28.97;58.94;98287.50;5033133;28;20170;-85
2023/08/03 00:47:02;;;;;;;10.30;6.68;;;;;;;28.95;58.87;98286.91;5015587;28;20553;-85
2023/08/03 00:49:28;;;;;;;9.70;6.10;;;;;;;28.92;58.91;98294.59;5033345;28;20261;-86
2023/08/03 00:51:57;;;;;;;9.60;5.93;;;;;;;28.87;59.66;98294.41;5033268;28;20600;-85
2023/08/03 00:54:23;;;;;;;8.48;5.88;;;;;;;28.82;59.41;98299.63;5032327;28;20591;-86
2023/08/03 00:56:49;;;;;;;10.98;6.80;;;;;;;28.76;59.39;98304.03;5033020;28;20632;-86
2023/08/03 00:59:15;;;;;;;10.55;6.68;;;;;;;28.71;59.71;98300.31;5032055;28;20174;-86
2023/08/03 01:01:41;;;;;;;10.32;7.10;;;;;;;28.66;59.24;98309.06;5033208;28;20171;-85
2023/08/03 01:04:07;;;;;;;9.90;6.10;;;;;;;28.61;59.63;98307.03;5033263;28;20170;-85
2023/08/03 01:06:32;;;;;;;9.55;6.55;;;;;;;28.58;59.97;98302.03;5032178;28;20207;-85
2023/08/03 01:08:59;;;;;;;10.82;6.93;;;;;;;28.56;60.08;98304.09;5032914;28;20179;-85
2023/08/03 01:11:25;;;;;;;9.73;6.25;;;;;;;28.53;60.02;98307.22;5032714;28;20182;-85
2023/08/03 01:13:51;;;;;;;9.63;6.88;;;;;;;28.52;60.25;98304.72;5033121;28;20171;-85
2023/08/03 01:16:16;;;;;;;13.05;7.18;;;;;;;28.44;60.34;98308.50;5032734;28;20635;-85
2023/08/03 01:18:42;;;;;;;9.88;6.45;;;;;;;28.42;60.52;98315.16;5031933;28;20271;-85
2023/08/03 01:21:09;;;;;;;10.38;6.78;;;;;;;28.39;60.56;98316.41;5033128;28;20608;-85
2023/08/03 01:23:34;;;;;;;9.80;6.07;;;;;;;28.39;60.50;98313.72;5032470;28;20198;-85
2023/08/03 01:26:00;;;;;;;10.77;6.50;;;;;;;28.36;60.78;98314.13;5015949;28;20274;-85
2023/08/03 01:28:25;;;;;;;10.38;6.05;;;;;;;28.34;61.08;98320.78;5015340;28;20209;-85
2023/08/03 01:30:51;;;;;;;8.93;6.80;;;;;;;28.30;60.92;98320.38;5032689;28;20183;-85
2023/08/03 01:33:16;;;;;;;10.85;6.57;;;;;;;28.23;61.28;98318.75;5032700;28;20624;-85
2023/08/03 01:35:42;;;;;;;8.75;6.22;;;;;;;28.20;60.85;98319.19;5033131;28;20181;-85
2023/08/03 01:38:07;;;;;;;9.07;6.28;;;;;;;28.24;60.68;98323.09;5015262;28;20651;-85
2023/08/03 01:40:33;;;;;;;10.00;6.03;;;;;;;28.21;60.86;98321.66;5015898;28;20243;-85
2023/08/03 01:42:58;;;;;;;10.15;5.90;;;;;;;28.15;61.54;98319.81;5032780;28;20237;-85
2023/08/03 01:45:24;;;;;;;10.90;6.43;;;;;;;28.13;61.05;98323.75;5032416;28;20174;-85
2023/08/03 01:47:49;;;;;;;12.27;7.03;;;;;;;28.11;61.04;98329.38;5035994;28;20178;-85
2023/08/03 01:50:15;;;;;;;9.00;6.03;;;;;;;28.09;61.03;98326.06;5036124;28;20743;-85
2023/08/03 01:52:40;;;;;;;8.13;5.95;;;;;;;28.09;61.45;98328.75;5018634;28;20170;-85
2023/08/03 01:55:06;;;;;;;10.57;6.85;;;;;;;28.11;61.10;98333.91;5036488;28;20174;-85
2023/08/03 01:57:31;;;;;;;8.65;5.97;;;;;;;28.10;60.84;98335.78;5035990;28;20220;-85
2023/08/03 01:59:57;;;;;;;10.35;6.55;;;;;;;28.12;60.84;98332.91;5018533;28;20543;-85
2023/08/03 02:02:22;;;;;;;8.98;6.57;;;;;;;28.14;60.58;98337.03;5035787;28;20190;-85
2023/08/03 02:04:48;;;;;;;10.77;6.35;;;;;;;28.15;60.46;98338.66;5018261;28;20202;-85
2023/08/03 02:07:37;;;;;;;9.90;6.68;;;;;;;28.13;60.65;98329.97;5018385;28;20191;-85
2023/08/03 02:10:03;;;;;;;8.60;6.07;;;;;;;28.09;60.85;98331.44;5035485;28;20178;-85
2023/08/03 02:12:28;;;;;;;9.45;6.68;;;;;;;28.03;60.98;98335.81;5018136;28;20179;-85
2023/08/03 02:14:54;;;;;;;10.55;6.60;;;;;;;28.01;61.13;98337.03;5018270;28;20317;-85
2023/08/03 02:17:20;;;;;;;9.23;6.00;;;;;;;27.97;61.13;98333.09;5035616;28;20527;-85
2023/08/03 02:19:46;;;;;;;9.30;6.55;;;;;;;27.92;61.83;98338.28;5018213;28;20182;-85
2023/08/03 02:22:11;;;;;;;10.27;6.05;;;;;;;27.93;61.47;98342.66;5017922;28;20206;-85
2023/08/03 02:24:37;;;;;;;11.85;6.75;;;;;;;27.92;61.33;98343.66;5035483;28;20651;-86
2023/08/03 02:27:02;;;;;;;10.98;6.72;;;;;;;27.90;61.65;98343.06;5035704;28;20250;-85
2023/08/03 02:29:28;;;;;;;10.50;6.88;;;;;;;27.87;61.60;98347.00;5017967;28;20175;-85
2023/08/03 02:31:53;;;;;;;8.65;6.10;;;;;;;27.85;61.15;98343.69;5035935;28;20608;-85
2023/08/03 02:34:18;;;;;;;9.57;6.47;;;;;;;27.85;61.50;98356.31;5017924;28;20170;-85
2023/08/03 02:36:44;;;;;;;10.00;6.60;;;;;;;27.84;61.28;98349.28;5018257;28;20186;-85
2023/08/03 02:39:09;;;;;;;10.23;6.47;;;;;;;27.79;61.54;98352.59;5035312;28;20170;-85
2023/08/03 02:41:38;;;;;;;10.85;7.55;;;;;;;27.76;61.47;98354.88;5034956;28;20178;-86
2023/08/03 02:44:04;;;;;;;9.07;6.72;;;;;;;27.76;61.24;98366.47;5035425;28;20174;-85
2023/08/03 02:46:30;;;;;;;11.13;6.82;;;;;;;27.69;61.56;98357.59;5035641;28;20181;-85
2023/08/03 02:48:56;;;;;;;12.48;6.80;;;;;;;27.70;61.55;98361.91;5017513;28;20198;-85
2023/08/03 02:51:22;;;;;;;10.93;7.80;;;;;;;27.71;61.37;98357.38;5035029;28;20612;-85
2023/08/03 02:53:47;;;;;;;13.60;8.18;;;;;;;27.64;60.96;98362.78;5034795;28;20677;-85
2023/08/03 02:56:12;;;;;;;11.65;7.18;;;;;;;27.64;60.97;98364.63;5035328;28;20185;-85
2023/08/03 02:58:38;;;;;;;11.32;7.40;;;;;;;27.64;60.66;98367.31;5017150;28;20182;-85
2023/08/03 03:01:04;;;;;;;10.32;7.55;;;;;;;27.60;60.65;98366.06;5034632;28;20202;-85
2023/08/03 03:03:30;;;;;;;11.32;7.75;;;;;;;27.59;60.60;98375.19;5034969;28;20210;-85
2023/08/03 03:05:55;;;;;;;12.70;7.70;;;;;;;27.56;60.81;98371.06;5034059;28;20190;-85
2023/08/03 03:08:21;;;;;;;11.23;7.28;;;;;;;27.50;61.10;98381.81;5035214;28;20174;-85
2023/08/03 03:10:46;;;;;;;10.02;6.78;;;;;;;27.48;60.53;98378.50;5034868;28;20182;-85
2023/08/03 03:13:12;;;;;;;12.10;7.65;;;;;;;27.46;60.73;98378.72;5035416;28;20245;-85
2023/08/03 03:15:37;;;;;;;12.35;7.35;;;;;;;27.44;60.56;98381.59;5034512;28;20549;-85
2023/08/03 03:18:02;;;;;;;12.27;8.10;;;;;;;27.47;60.28;98382.22;5017070;28;20170;-85
2023/08/03 03:20:28;;;;;;;11.13;7.75;;;;;;;27.47;59.99;98382.22;5033475;28;20578;-85
2023/08/03 03:22:53;;;;;;;12.43;7.80;;;;;;;27.40;60.48;98387.59;5034167;28;20229;-85
2023/08/03 03:25:19;;;;;;;12.48;8.23;;;;;;;27.33;60.52;98392.94;5033952;28;20694;-85
2023/08/03 03:27:44;;;;;;;13.63;7.68;;;;;;;27.27;60.71;98388.38;5034297;28;20265;-85
2023/08/03 03:30:10;;;;;;;12.13;7.78;;;;;;;27.23;60.56;98381.75;5034280;28;20175;-85
2023/08/03 03:32:44;;;;;;;13.23;7.65;;;;;;;27.22;60.93;98388.16;5034105;28;20170;-85
2023/08/03 03:35:09;;;;;;;12.52;8.07;;;;;;;27.25;60.71;98390.44;5034130;28;20595;-85
2023/08/03 03:37:35;;;;;;;11.82;7.95;;;;;;;27.25;60.82;98390.44;5034257;28;20210;-85
2023/08/03 03:40:00;;;;;;;10.50;7.60;;;;;;;27.30;60.77;98387.97;5033094;28;20175;-85
2023/08/03 03:42:26;;;;;;;11.93;6.90;;;;;;;27.28;60.58;98383.84;5034258;28;20570;-85
2023/08/03 03:44:51;;;;;;;12.63;8.43;;;;;;;27.24;60.76;98388.78;5033927;28;20661;-85
2023/08/03 03:47:17;;;;;;;12.10;7.45;;;;;;;27.22;61.02;98390.03;5033884;28;20432;-85
2023/08/03 03:49:42;;;;;;;11.77;7.10;;;;;;;27.13;61.22;98389.38;5033893;28;20233;-85
2023/08/03 03:52:08;;;;;;;12.30;8.02;;;;;;;27.13;61.20;98386.69;5033783;28;20253;-85
2023/08/03 03:54:33;;;;;;;12.23;8.02;;;;;;;27.12;61.56;98387.72;5034102;28;20228;-85
2023/08/03 03:57:00;;;;;;;13.48;7.97;;;;;;;27.14;61.10;98387.53;5034082;28;20186;-85
2023/08/03 03:59:26;;;;;;;10.65;7.40;;;;;;;27.17;61.39;98393.34;5033807;28;20186;-85
2023/08/03 04:01:51;;;;;;;11.57;7.80;;;;;;;27.15;61.36;98395.38;5016541;28;20632;-85
2023/08/03 04:04:17;;;;;;;12.48;7.57;;;;;;;27.20;61.16;98402.88;5033439;28;20174;-85
2023/08/03 04:06:43;;;;;;;10.82;7.47;;;;;;;27.22;61.38;98406.16;5033401;28;20167;-85
2023/08/03 04:09:09;;;;;;;13.85;8.25;;;;;;;27.21;61.53;98393.75;5015420;28;20627;-85
2023/08/03 04:11:34;;;;;;;12.00;7.68;;;;;;;27.23;61.58;98392.50;5033537;28;20175;-85
2023/08/03 04:13:59;;;;;;;12.27;7.38;;;;;;;27.25;61.61;98398.50;5033524;28;20186;-85
2023/08/03 04:16:25;;;;;;;11.60;8.27;;;;;;;27.28;61.62;98395.41;5016396;28;20178;-85
2023/08/03 04:18:50;;;;;;;11.85;7.63;;;;;;;27.34;61.55;98399.97;5033422;28;20600;-85
2023/08/03 04:21:15;;;;;;;12.85;8.02;;;;;;;27.38;61.66;98398.53;5033394;28;20696;-85
2023/08/03 04:23:41;;;;;;;13.80;8.35;;;;;;;27.42;61.72;98404.38;5034144;28;20252;-85
2023/08/03 04:26:07;;;;;;;13.95;7.55;;;;;;;27.51;61.35;98405.00;5015996;28;20170;-85
2023/08/03 04:28:33;;;;;;;14.50;7.75;;;;;;;27.60;60.96;98396.50;5033300;28;20186;-85
2023/08/03 04:30:58;;;;;;;11.15;7.38;;;;;;;27.66;61.09;98402.94;5033311;28;20257;-85
2023/08/03 04:33:24;;;;;;;10.15;6.95;;;;;;;27.73;61.41;98409.97;5015749;28;20179;-85
2023/08/03 04:35:49;;;;;;;13.15;8.27;;;;;;;27.81;61.34;98404.38;5033808;28;20189;-85
2023/08/03 04:38:14;;;;;;;14.23;8.23;;;;;;;27.88;61.24;98407.09;5033206;28;20193;-85
2023/08/03 04:40:40;;;;;;;11.27;7.97;;;;;;;27.95;60.80;98413.28;5033078;28;20576;-85
2023/08/03 04:43:05;;;;;;;13.70;8.15;;;;;;;28.00;60.08;98413.50;5015564;28;20281;-85
2023/08/03 04:45:31;;;;;;;15.23;8.48;;;;;;;28.06;60.52;98420.78;5033028;28;20167;-85
2023/08/03 04:47:56;;;;;;;15.48;8.57;;;;;;;28.14;60.75;98428.66;5033228;28;20177;-85
2023/08/03 04:50:22;;;;;;;12.27;8.10;;;;;;;28.25;60.52;98422.59;5015674;28;20171;-85
2023/08/03 04:52:47;;;;;;;11.90;7.88;;;;;;;28.36;60.25;98421.97;5022145;28;20403;-85
2023/08/03 04:55:13;;;;;;;14.18;7.95;;;;;;;28.47;60.50;98418.63;5033171;28;20182;-85
2023/08/03 04:57:38;;;;;;;13.27;8.38;;;;;;;28.62;60.33;98432.72;5033358;28;20171;-85
2023/08/03 05:00:04;;;;;;;12.38;8.20;;;;;;;28.80;59.65;98439.31;5032107;28;20178;-85
2023/08/03 05:02:30;;;;;;;14.77;7.82;;;;;;;28.90;59.92;98439.69;5032813;28;20228;-85
2023/08/03 05:04:55;;;;;;;12.20;8.05;;;;;;;28.95;59.96;98443.41;5032872;28;20210;-85
2023/08/03 05:07:21;;;;;;;12.55;8.10;;;;;;;29.13;59.36;98448.06;5031899;28;20182;-85
2023/08/03 05:09:46;;;;;;;14.18;8.48;;;;;;;29.30;58.58;98446.56;5032978;28;20204;-85
2023/08/03 05:12:11;;;;;;;18.27;8.40;;;;;;;29.39;58.37;98450.66;5015561;28;20631;-85
2023/08/03 05:14:37;;;;;;;21.08;7.88;;;;;;;29.47;58.42;98450.41;5015448;28;20174;-85
2023/08/03 05:17:02;;;;;;;17.33;8.20;;;;;;;29.63;58.49;98447.19;5015456;28;20715;-85
2023/08/03 05:19:28;;;;;;;11.13;7.35;;;;;;;29.80;58.00;98447.50;5032857;28;20555;-85
2023/08/03 05:21:53;;;;;;;10.85;7.18;;;;;;;30.16;57.48;98449.50;5035978;28;20182;-85
2023/08/03 05:24:19;;;;;;;10.02;7.32;;;;;;;30.44;57.14;98449.88;5035608;28;20259;-85
2023/08/03 05:26:44;;;;;;;11.60;6.45;;;;;;;30.61;55.69;98445.50;5035669;28;20175;-85
2023/08/03 05:29:10;;;;;;;8.38;5.78;;;;;;;30.76;54.98;98448.69;5019127;28;20234;-85
2023/08/03 05:31:35;;;;;;;8.90;6.35;;;;;;;30.82;54.20;98444.22;5036812;28;20610;-85
2023/08/03 05:34:01;;;;;;;10.55;6.10;;;;;;;30.91;54.76;98454.56;5036342;28;20265;-85
2023/08/03 05:36:26;;;;;;;9.27;6.28;;;;;;;30.97;54.67;98455.56;5036715;28;20626;-85
2023/08/03 05:38:55;;;;;;;9.63;6.35;;;;;;;31.16;53.71;98456.34;5036350;28;20185;-85
2023/08/03 05:41:23;;;;;;;10.18;6.10;;;;;;;31.32;53.54;98458.41;5036322;28;20618;-85
2023/08/03 05:43:48;;;;;;;9.38;5.88;;;;;;;31.52;51.78;98462.53;5036516;28;20251;-85
2023/08/03 05:46:14;;;;;;;8.65;6.20;;;;;;;31.60;51.45;98461.38;5035120;28;20182;-85
2023/08/03 05:48:40;;;;;;;9.30;5.85;;;;;;;31.82;49.88;98461.66;5036117;28;20174;-85
2023/08/03 05:51:08;;;;;;;11.25;6.78;;;;;;;31.91;49.29;98460.28;5035514;28;20508;-85
2023/08/03 05:53:33;;;;;;;10.60;6.30;;;;;;;32.03;48.90;98444.88;5036061;28;20183;-85
2023/08/03 05:55:59;;;;;;;12.48;6.97;;;;;;;32.09;48.29;98452.91;5035107;28;20190;-85
2023/08/03 05:58:24;;;;;;;9.90;6.45;;;;;;;32.15;47.96;98454.66;5035084;28;20174;-86
2023/08/03 06:00:50;;;;;;;11.15;6.40;;;;;;;32.30;46.81;98456.09;5035841;28;20191;-86
2023/08/03 06:03:17;;;;;;;9.15;6.78;;;;;;;32.39;45.95;98451.97;5034740;28;20201;-86
2023/08/03 06:05:48;;;;;;;10.68;6.97;;;;;;;32.45;45.53;98453.72;5035776;28;20190;-86
2023/08/03 06:08:22;;;;;;;12.38;7.68;;;;;;;32.32;45.84;98464.81;5018949;28;20524;-85
2023/08/03 06:10:53;;;;;;;12.80;6.65;;;;;;;32.34;46.15;98458.09;5036415;28;20181;-86
2023/08/03 06:13:21;;;;;;;10.02;6.97;;;;;;;32.39;45.86;98460.09;5035653;28;20194;-86
2023/08/03 06:15:47;;;;;;;11.10;7.07;;;;;;;32.49;45.38;98463.06;5035965;28;20174;-86
2023/08/03 06:18:20;;;;;;;13.90;7.43;;;;;;;32.65;45.46;98463.16;5034686;28;20182;-86
2023/08/03 06:20:48;;;;;;;13.38;8.95;;;;;;;32.60;45.00;98463.06;5035493;28;20170;-85
2023/08/03 06:23:20;;;;;;;11.85;8.23;;;;;;;32.55;46.54;98456.69;5035675;28;20193;-86
2023/08/03 06:25:47;;;;;;;12.65;7.90;;;;;;;32.53;46.25;98459.66;5018027;28;20179;-85
2023/08/03 06:28:20;;;;;;;12.50;7.80;;;;;;;32.56;46.23;98461.06;5035355;28;20170;-86
2023/08/03 06:30:47;;;;;;;14.20;8.55;;;;;;;32.81;45.33;98459.72;5034505;28;20186;-86
2023/08/03 06:33:15;;;;;;;15.38;9.27;;;;;;;33.16;44.44;98456.13;5033932;28;20240;-86
2023/08/03 06:35:41;;;;;;;12.68;8.73;;;;;;;33.46;44.78;98459.44;5035832;28;20240;-85
2023/08/03 06:38:14;;;;;;;16.67;8.50;;;;;;;33.75;44.07;98457.53;5035489;28;20244;-86
2023/08/03 06:40:41;;;;;;;12.02;8.23;;;;;;;34.10;43.79;98452.72;5035330;28;20174;-86
2023/08/03 06:43:08;;;;;;;10.13;6.80;;;;;;;34.20;42.50;98441.19;5034345;28;20679;-86
2023/08/03 06:45:34;;;;;;;11.90;6.85;;;;;;;34.35;43.28;98452.28;5034035;28;20524;-86
2023/08/03 06:48:01;;;;;;;10.30;7.40;;;;;;;34.53;43.47;98444.66;5035308;28;20257;-86
2023/08/03 06:50:29;;;;;;;11.73;8.05;;;;;;;34.45;43.13;98445.09;5035032;28;20182;-86
2023/08/03 06:52:55;;;;;;;11.38;7.85;;;;;;;34.92;41.21;98450.09;5035275;28;20166;-86
2023/08/03 06:55:20;;;;;;;10.02;7.43;;;;;;;35.19;40.97;98448.28;5034905;28;20186;-86
2023/08/03 06:57:46;;;;;;;14.05;8.07;;;;;;;35.37;41.96;98447.94;5035430;28;20175;-86
2023/08/03 07:00:12;;;;;;;11.10;6.97;;;;;;;35.51;41.28;98453.81;5034798;28;20260;-86
2023/08/03 07:02:38;;;;;;;10.77;6.93;;;;;;;35.52;40.17;98453.56;5034727;28;20221;-86
2023/08/03 07:05:04;;;;;;;9.57;6.07;;;;;;;35.50;41.18;98453.00;5034604;28;20641;-86
2023/08/03 07:07:30;;;;;;;9.32;6.60;;;;;;;35.70;40.94;98453.22;5034629;28;20245;-87
2023/08/03 07:09:56;;;;;;;9.93;6.88;;;;;;;35.90;40.65;98459.94;5017472;28;20184;-86
2023/08/03 07:12:21;;;;;;;9.40;6.45;;;;;;;36.00;40.22;98452.66;5017187;28;20253;-87
2023/08/03 07:14:47;;;;;;;8.70;5.97;;;;;;;36.09;40.22;98456.56;5034518;28;20174;-87
2023/08/03 07:17:12;;;;;;;9.40;5.95;;;;;;;36.34;39.83;98453.22;5017467;28;20197;-87
2023/08/03 07:19:38;;;;;;;18.30;6.68;;;;;;;36.51;38.90;98456.63;5017090;28;20706;-87
2023/08/03 07:22:04;;;;;;;7.25;5.05;;;;;;;36.56;38.96;98462.13;5034226;28;20639;-86
2023/08/03 07:24:33;;;;;;;10.98;5.95;;;;;;;36.58;38.98;98457.22;5034352;28;20170;-87
2023/08/03 07:27:00;;;;;;;8.27;6.00;;;;;;;36.90;37.70;98466.13;5033108;28;20218;-87
2023/08/03 07:29:27;;;;;;;10.23;6.38;;;;;;;37.18;38.48;98464.09;5034604;28;20236;-87
2023/08/03 07:31:52;;;;;;;8.73;6.32;;;;;;;37.40;37.78;98465.53;5033616;28;20265;-87
2023/08/03 07:34:18;;;;;;;10.23;6.75;;;;;;;37.68;36.48;98463.41;5034460;28;20642;-87
2023/08/03 07:36:43;;;;;;;11.13;5.90;;;;;;;37.78;36.68;98460.69;5034393;28;20170;-87
2023/08/03 07:39:09;;;;;;;8.68;5.90;;;;;;;37.81;36.35;98452.78;5034140;28;20170;-87
2023/08/03 07:41:34;;;;;;;8.68;5.82;;;;;;;37.50;36.24;98456.56;5034046;28;20660;-87
2023/08/03 07:44:00;;;;;;;10.27;5.70;;;;;;;37.23;35.44;98444.97;5033993;28;20222;-87
2023/08/03 07:46:25;;;;;;;9.07;5.47;;;;;;;37.53;37.50;98450.53;5033344;28;20636;-87
2023/08/03 07:48:51;;;;;;;9.02;5.40;;;;;;;37.95;36.52;98448.41;5034103;28;20206;-87
2023/08/03 07:51:17;;;;;;;7.00;4.90;;;;;;;37.96;36.25;98450.06;5032819;28;20608;-87
2023/08/03 07:53:43;;;;;;;6.65;5.57;;;;;;;38.32;36.20;98442.66;5033157;28;20258;-87
2023/08/03 07:56:20;;;;;;;9.15;5.68;;;;;;;38.70;34.99;98441.22;5032869;28;20708;-87
2023/08/03 07:58:46;;;;;;;6.32;4.65;;;;;;;39.00;34.46;98443.88;5034426;28;20170;-87
2023/08/03 08:01:12;;;;;;;8.50;5.93;;;;;;;39.24;34.97;98442.13;5033268;28;20182;-87
2023/08/03 08:03:39;;;;;;;8.52;5.78;;;;;;;39.25;33.96;98443.78;5033094;28;20209;-88
2023/08/03 08:06:12;;;;;;;10.95;5.18;;;;;;;39.29;34.00;98441.28;5032612;28;20328;-87
2023/08/03 08:08:39;;;;;;;8.15;5.47;;;;;;;39.38;34.11;98438.78;5033075;28;20209;-87
2023/08/03 08:11:05;;;;;;;12.52;5.97;;;;;;;39.53;33.18;98441.41;5032942;28;20321;-87
2023/08/03 08:13:31;;;;;;;9.45;6.00;;;;;;;39.61;33.55;98438.06;5033660;28;20178;-87
2023/08/03 08:16:01;;;;;;;8.57;5.82;;;;;;;39.63;32.51;98431.22;5033720;28;20550;-88
2023/08/03 08:18:27;;;;;;;8.55;6.47;;;;;;;39.92;33.11;98434.84;5032561;28;20182;-87
2023/08/03 08:21:07;;;;;;;7.22;5.45;;;;;;;40.06;33.78;98437.78;5032455;28;20178;-87
2023/08/03 08:23:33;;;;;;;8.57;5.60;;;;;;;40.18;32.55;98437.38;5030620;28;20206;-88
2023/08/03 08:25:59;;;;;;;8.38;6.22;;;;;;;40.18;31.71;98431.88;5033253;28;20174;-88
2023/08/03 08:28:25;;;;;;;9.07;5.65;;;;;;;40.17;32.48;98436.59;5032989;28;20601;-87
2023/08/03 08:30:50;;;;;;;9.93;5.30;;;;;;;39.96;33.19;98442.50;5020266;28;20252;-87
2023/08/03 08:33:17;;;;;;;14.68;5.50;;;;;;;40.14;32.15;98447.31;5012681;28;20554;-88
2023/08/03 08:35:45;;;;;;;8.38;5.80;;;;;;;40.29;32.97;98438.91;5012668;28;20211;-87
2023/08/03 08:38:14;;;;;;;8.07;5.03;;;;;;;40.45;33.11;98438.50;5013523;28;20175;-87
2023/08/03 08:40:40;;;;;;;8.75;5.15;;;;;;;40.58;32.80;98430.69;5012447;28;20183;-87
2023/08/03 08:43:07;;;;;;;7.93;5.47;;;;;;;40.39;31.95;98431.41;5021509;28;20204;-87
2023/08/03 08:45:37;;;;;;;7.95;5.28;;;;;;;40.62;31.71;98432.56;5033001;28;20248;-88
2023/08/03 08:48:03;;;;;;;7.90;5.00;;;;;;;40.55;31.99;98431.25;5033210;28;20175;-87
2023/08/03 08:50:29;;;;;;;9.48;5.82;;;;;;;40.61;31.17;98438.34;5032101;28;20555;-88
2023/08/03 08:52:55;;;;;;;7.40;4.55;;;;;;;40.65;31.84;98429.22;5032817;28;20632;-87
2023/08/03 08:55:29;;;;;;;7.13;4.95;;;;;;;40.82;31.50;98431.50;5033364;28;20616;-88
2023/08/03 08:57:55;;;;;;;9.35;5.63;;;;;;;40.93;30.28;98427.56;5036377;28;20265;-87
2023/08/03 09:00:24;;;;;;;9.45;6.13;;;;;;;40.99;30.37;98432.69;5035590;28;20187;-88
2023/08/03 09:02:55;;;;;;;7.18;5.55;;;;;;;41.16;30.14;98423.94;5036076;28;20205;-87
2023/08/03 09:05:22;;;;;;;7.03;5.40;;;;;;;41.25;30.17;98430.41;5036047;28;20614;-88
2023/08/03 09:08:05;;;;;;;8.30;6.18;;;;;;;41.38;29.86;98429.69;5035809;28;20186;-87
2023/08/03 09:10:46;;;;;;;12.02;5.82;;;;;;;41.60;29.70;98432.69;5037086;28;20166;-87
2023/08/03 09:13:28;;;;;;;7.13;5.45;;;;;;;41.49;29.59;98425.69;5036407;28;20244;-87
2023/08/03 09:15:55;;;;;;;8.10;5.95;;;;;;;41.27;30.92;98425.44;5035238;28;20202;-87
2023/08/03 09:18:22;;;;;;;7.85;5.47;;;;;;;41.61;30.56;98430.75;5036559;28;20205;-87
2023/08/03 09:20:47;;;;;;;8.60;6.22;;;;;;;41.32;30.74;98419.09;5036995;28;20205;-88
2023/08/03 09:23:34;;;;;;;12.13;6.00;;;;;;;41.18;30.06;98418.97;5018973;28;20233;-87
2023/08/03 09:26:00;;;;;;;8.98;5.43;;;;;;;41.12;30.71;98413.84;5018737;28;20190;-87
2023/08/03 09:28:41;;;;;;;10.75;6.30;;;;;;;41.01;31.36;98413.94;5036460;28;20174;-87
2023/08/03 09:31:07;;;;;;;8.90;5.63;;;;;;;41.00;31.09;98411.50;5035645;28;20550;-87
2023/08/03 09:33:33;;;;;;;7.40;5.40;;;;;;;40.63;30.53;98411.38;5035844;28;20183;-87
2023/08/03 09:36:11;;;;;;;7.97;5.93;;;;;;;40.42;31.74;98410.75;5036646;28;20693;-87
2023/08/03 09:38:38;;;;;;;11.43;5.65;;;;;;;40.22;30.85;98400.81;5036336;28;20154;-87
2023/08/03 09:41:03;;;;;;;6.68;5.97;;;;;;;40.25;31.50;98404.91;5036080;28;20179;-87
2023/08/03 09:43:30;;;;;;;9.00;6.18;;;;;;;40.23;30.86;98398.88;5036149;28;20694;-87
2023/08/03 09:45:56;;;;;;;12.38;5.65;;;;;;;40.56;30.56;98394.44;5036176;28;20187;-87
2023/08/03 09:48:22;;;;;;;9.02;5.85;;;;;;;40.69;30.87;98389.06;5034958;28;20189;-87
2023/08/03 09:51:08;;;;;;;6.95;5.65;;;;;;;40.67;30.40;98391.28;5018709;28;20183;-87
2023/08/03 09:53:38;;;;;;;7.68;5.75;;;;;;;40.86;29.58;98386.63;5018893;28;20186;-87
2023/08/03 09:56:05;;;;;;;7.28;5.93;;;;;;;40.90;31.05;98389.66;5018195;28;20179;-87
2023/08/03 09:58:42;;;;;;;12.25;5.82;;;;;;;41.17;30.60;98387.09;5035883;28;20182;-87
2023/08/03 10:01:12;;;;;;;8.27;5.65;;;;;;;40.81;29.45;98385.88;5036566;28;20167;-87
2023/08/03 10:03:41;;;;;;;7.40;6.05;;;;;;;40.92;30.21;98385.50;5036403;28;20217;-87
2023/08/03 10:06:18;;;;;;;7.53;5.75;;;;;;;41.40;29.85;98382.66;5035042;28;20310;-87
2023/08/03 10:08:51;;;;;;;6.95;5.45;;;;;;;41.09;29.17;98382.25;5035654;28;20162;-87
2023/08/03 10:11:19;;;;;;;6.63;4.95;;;;;;;40.92;29.70;98390.16;4999069;28;20175;-87
2023/08/03 10:13:50;;;;;;;9.77;5.25;;;;;;;41.37;30.09;98383.22;5023445;28;20194;-87
2023/08/03 10:16:17;;;;;;;6.85;5.35;;;;;;;41.49;29.69;98367.91;5036029;28;20182;-88
2023/08/03 10:18:44;;;;;;;5.72;4.38;;;;;;;41.68;29.18;98365.94;5034713;28;20193;-87
2023/08/03 10:21:10;;;;;;;8.43;4.95;;;;;;;41.71;27.93;98367.28;5034665;28;20197;-87
2023/08/03 10:23:39;;;;;;;7.47;4.93;;;;;;;41.88;28.32;98353.78;5035349;28;20206;-87
2023/08/03 10:26:06;;;;;;;6.57;5.15;;;;;;;42.18;28.47;98349.69;5034593;28;20185;-87
2023/08/03 10:28:40;;;;;;;8.35;5.15;;;;;;;42.29;28.29;98351.13;5034548;28;20220;-87
2023/08/03 10:31:14;;;;;;;6.53;4.20;;;;;;;42.40;27.51;98351.75;5035299;28;20191;-87
2023/08/03 10:33:46;;;;;;;7.20;4.40;;;;;;;42.39;26.38;98344.59;5019051;28;20244;-88
2023/08/03 10:36:30;;;;;;;6.75;4.40;;;;;;;42.36;27.86;98343.28;5035089;28;20193;-87
2023/08/03 10:38:59;;;;;;;5.95;4.53;;;;;;;42.60;26.86;98341.16;5035269;28;20182;-88
2023/08/03 10:41:38;;;;;;;6.60;4.70;;;;;;;42.89;26.49;98339.97;5017978;28;20336;-88
2023/08/03 10:44:09;;;;;;;6.55;4.78;;;;;;;43.04;26.04;98320.34;5034069;28;20202;-88
2023/08/03 10:46:38;;;;;;;6.10;4.65;;;;;;;43.19;26.60;98320.03;5034508;28;20197;-88
2023/08/03 10:49:27;;;;;;;6.00;4.13;;;;;;;42.99;26.83;98324.06;5034465;28;20186;-87
2023/08/03 10:52:28;;;;;;;5.47;4.28;;;;;;;42.67;26.29;98329.69;5023861;28;20639;-87
2023/08/03 10:54:55;;;;;;;6.25;3.80;;;;;;;42.05;26.64;98315.47;5017837;28;20182;-87
2023/08/03 10:57:24;;;;;;;5.93;3.97;;;;;;;42.24;26.56;98312.66;5035180;28;20170;-87
2023/08/03 10:59:55;;;;;;;6.43;3.83;;;;;;;42.41;27.06;98323.06;5034847;28;20265;-88
2023/08/03 11:02:30;;;;;;;5.97;4.00;;;;;;;42.62;25.65;98316.84;5034090;28;20344;-87
2023/08/03 11:04:57;;;;;;;5.07;3.60;;;;;;;42.66;25.08;98311.53;5033988;28;20655;-87
2023/08/03 11:07:24;;;;;;;5.00;3.90;;;;;;;42.87;25.34;98314.66;5033817;28;20554;-88
2023/08/03 11:09:54;;;;;;;5.20;3.95;;;;;;;43.08;26.00;98318.63;5034006;28;20701;-88
2023/08/03 11:12:22;;;;;;;5.72;4.38;;;;;;;43.19;25.37;98297.94;5034935;28;20655;-88
2023/08/03 11:14:53;;;;;;;4.45;3.70;;;;;;;43.55;26.22;98289.63;5033525;28;20604;-87
2023/08/03 11:17:24;;;;;;;5.45;4.22;;;;;;;43.56;25.00;98296.78;5034517;28;20184;-88
2023/08/03 11:19:50;;;;;;;4.80;3.75;;;;;;;43.53;24.13;98297.41;5034440;28;20177;-87
2023/08/03 11:22:16;;;;;;;4.70;3.40;;;;;;;43.64;24.75;98276.69;5034004;28;20186;-88
2023/08/03 11:24:42;;;;;;;4.60;3.53;;;;;;;43.75;23.35;98286.34;5033498;28;20186;-89
2023/08/03 11:27:09;;;;;;;4.90;3.90;;;;;;;43.63;24.44;98278.66;5033429;28;20272;-87
2023/08/03 11:29:36;;;;;;;5.22;3.42;;;;;;;43.70;23.45;98275.41;5034860;28;20260;-87